createdAt,value
2022-09-04T00:30:00.212Z,0
2022-09-04T00:30:40.672Z,0
2022-09-04T00:31:21.261Z,0
2022-09-04T00:32:01.663Z,0
2022-09-04T00:32:42.134Z,0
2022-09-04T00:33:22.604Z,0
2022-09-04T00:34:03.079Z,0
2022-09-04T00:34:43.557Z,0
2022-09-04T00:35:24.049Z,0
2022-09-04T00:36:04.534Z,0
2022-09-04T00:36:49.564Z,0
2022-09-04T00:43:29.899Z,0
2022-09-04T00:44:10.412Z,0
2022-09-04T00:44:50.898Z,0
2022-09-04T00:45:31.379Z,0
2022-09-04T00:46:11.907Z,0
2022-09-04T00:46:52.368Z,0
2022-09-04T00:47:32.888Z,0
2022-09-04T00:48:13.338Z,0
2022-09-04T00:48:53.794Z,0
2022-09-04T00:49:34.441Z,0
2022-09-04T00:50:14.997Z,0
2022-09-04T00:57:40.227Z,0
2022-09-04T00:58:20.720Z,0
2022-09-04T00:59:01.142Z,0
2022-09-04T00:59:41.637Z,0
2022-09-04T01:00:22.114Z,0
2022-09-04T01:01:02.712Z,0
2022-09-04T01:01:43.190Z,0
2022-09-04T01:02:23.625Z,0
2022-09-04T01:03:04.042Z,0
2022-09-04T01:03:44.537Z,0
2022-09-04T01:11:50.303Z,0
2022-09-04T01:12:30.743Z,0
2022-09-04T01:13:11.226Z,0
2022-09-04T01:13:51.894Z,0
2022-09-04T01:14:32.238Z,0
2022-09-04T01:15:12.693Z,0
2022-09-04T01:15:53.198Z,0
2022-09-04T01:16:35.364Z,0
2022-09-04T01:17:14.602Z,0
2022-09-04T01:17:55.166Z,0
2022-09-04T01:24:40.025Z,0
2022-09-04T01:25:20.561Z,0
2022-09-04T01:26:01.002Z,0
2022-09-04T01:26:41.500Z,0
2022-09-04T01:27:22.011Z,0
2022-09-04T01:28:02.473Z,0
2022-09-04T01:28:42.929Z,0
2022-09-04T01:29:23.441Z,0
2022-09-04T01:30:03.943Z,0
2022-09-04T01:30:44.408Z,0
2022-09-04T01:31:24.958Z,0
2022-09-04T01:37:05.605Z,0
2022-09-04T01:37:46.194Z,0
2022-09-04T01:38:26.582Z,0
2022-09-04T01:39:07.093Z,0
2022-09-04T01:39:47.575Z,0
2022-09-04T01:40:34.164Z,0
2022-09-04T01:41:08.456Z,0
2022-09-04T01:41:48.986Z,0
2022-09-04T01:42:29.413Z,0
2022-09-04T01:43:09.902Z,0
2022-09-04T01:43:50.372Z,0
2022-09-04T01:51:15.643Z,0
2022-09-04T01:51:56.216Z,0
2022-09-04T01:52:36.811Z,0
2022-09-04T01:53:17.274Z,0
2022-09-04T01:53:57.621Z,0
2022-09-04T01:54:38.105Z,0
2022-09-04T01:55:18.576Z,0
2022-09-04T01:55:59.025Z,0
2022-09-04T01:56:39.508Z,0
2022-09-04T01:57:19.996Z,0
2022-09-04T01:58:00.498Z,0
2022-09-04T02:04:45.462Z,0
2022-09-04T02:05:25.909Z,0
2022-09-04T02:06:06.403Z,0
2022-09-04T02:06:46.933Z,0
2022-09-04T02:07:27.385Z,0
2022-09-04T02:08:07.913Z,0
2022-09-04T02:08:48.392Z,0
2022-09-04T02:09:28.893Z,0
2022-09-04T02:10:09.365Z,0
2022-09-04T02:10:49.818Z,0
2022-09-04T02:18:55.462Z,0
2022-09-04T02:19:35.936Z,0
2022-09-04T02:20:16.395Z,0
2022-09-04T02:23:30.147Z,0
2022-09-04T02:24:10.748Z,0
2022-09-04T02:24:51.175Z,0
2022-09-04T02:25:31.643Z,0
2022-09-04T02:26:12.099Z,0
2022-09-04T02:26:52.583Z,0
2022-09-04T02:27:33.067Z,0
2022-09-04T02:28:13.511Z,0
2022-09-04T02:28:54.010Z,0
2022-09-04T02:29:34.490Z,0
2022-09-04T02:37:40.216Z,0
2022-09-04T02:38:20.713Z,0
2022-09-04T02:39:01.196Z,0
2022-09-04T02:39:41.684Z,0
2022-09-04T02:40:22.172Z,0
2022-09-04T02:41:02.662Z,0
2022-09-04T02:41:43.135Z,0
2022-09-04T02:42:23.659Z,0
2022-09-04T02:43:04.123Z,0
2022-09-04T02:43:44.615Z,0
2022-09-04T02:44:25.101Z,0
2022-09-04T02:51:09.834Z,0
2022-09-04T02:51:50.342Z,0
2022-09-04T02:52:30.830Z,0
2022-09-04T02:53:11.308Z,0
2022-09-04T02:53:51.793Z,0
2022-09-04T02:54:32.267Z,0
2022-09-04T02:55:12.739Z,0
2022-09-04T02:55:53.249Z,0
2022-09-04T02:56:33.711Z,0
2022-09-04T02:57:14.192Z,0
2022-09-04T02:57:54.656Z,0
2022-09-04T02:58:35.193Z,0
2022-09-04T03:05:19.846Z,0
2022-09-04T03:06:00.275Z,0
2022-09-04T03:06:40.755Z,0
2022-09-04T03:07:21.214Z,0
2022-09-04T03:08:01.738Z,0
2022-09-04T03:08:42.248Z,0
2022-09-04T03:09:22.751Z,0
2022-09-04T03:10:03.171Z,0
2022-09-04T03:10:43.683Z,0
2022-09-04T03:11:24.134Z,0
2022-09-04T03:12:04.639Z,0
2022-09-04T03:12:45.115Z,0
2022-09-04T03:18:50.223Z,0
2022-09-04T03:19:30.720Z,0
2022-09-04T03:20:11.164Z,0
2022-09-04T03:20:51.610Z,0
2022-09-04T03:21:32.090Z,0
2022-09-04T03:22:12.543Z,0
2022-09-04T03:22:53.023Z,0
2022-09-04T03:23:33.491Z,0
2022-09-04T03:24:13.981Z,0
2022-09-04T03:24:54.449Z,0
2022-09-04T03:25:35.543Z,0
2022-09-04T03:32:19.808Z,0
2022-09-04T03:33:00.218Z,0
2022-09-04T03:33:40.672Z,0
2022-09-04T03:34:21.197Z,0
2022-09-04T03:35:01.670Z,0
2022-09-04T03:35:42.135Z,0
2022-09-04T03:36:22.622Z,0
2022-09-04T03:37:03.092Z,0
2022-09-04T03:37:43.583Z,0
2022-09-04T03:38:24.154Z,0
2022-09-04T03:39:04.545Z,0
2022-09-04T03:39:45.042Z,0
2022-09-04T03:46:29.816Z,0
2022-09-04T03:47:10.232Z,0
2022-09-04T03:47:50.764Z,0
2022-09-04T03:48:31.206Z,0
2022-09-04T03:49:11.674Z,0
2022-09-04T03:49:52.159Z,0
2022-09-04T03:50:32.643Z,0
2022-09-04T03:51:13.124Z,0
2022-09-04T03:51:53.575Z,0
2022-09-04T03:52:34.064Z,0
2022-09-04T03:53:14.502Z,0
2022-09-04T04:01:24.254Z,0
2022-09-04T04:02:00.718Z,0
2022-09-04T04:02:41.226Z,0
2022-09-04T04:03:21.694Z,0
2022-09-04T04:04:02.136Z,0
2022-09-04T04:04:42.623Z,0
2022-09-04T04:05:23.133Z,0
2022-09-04T04:06:03.623Z,0
2022-09-04T04:06:44.114Z,0
2022-09-04T04:07:24.532Z,0
2022-09-04T04:08:05.022Z,0
2022-09-04T04:15:30.212Z,0
2022-09-04T04:16:10.713Z,0
2022-09-04T04:16:56.032Z,0
2022-09-04T04:17:31.637Z,0
2022-09-04T04:18:12.086Z,4
2022-09-04T04:18:52.617Z,4
2022-09-04T04:19:33.051Z,0
2022-09-04T04:20:13.531Z,0
2022-09-04T04:20:54.065Z,0
2022-09-04T04:21:34.466Z,4
2022-09-04T04:22:14.944Z,0
2022-09-04T04:28:20.266Z,4
2022-09-04T04:29:00.532Z,4
2022-09-04T04:29:41.047Z,4
2022-09-04T04:30:21.549Z,8
2022-09-04T04:31:02.106Z,8
2022-09-04T04:31:42.568Z,8
2022-09-04T04:32:23.146Z,12
2022-09-04T04:33:03.668Z,12
2022-09-04T04:33:44.116Z,12
2022-09-04T04:34:24.605Z,12
2022-09-04T04:35:05.082Z,16
2022-09-04T04:41:49.810Z,40
2022-09-04T04:42:30.311Z,44
2022-09-04T04:43:10.790Z,48
2022-09-04T04:43:51.249Z,52
2022-09-04T04:44:31.789Z,56
2022-09-04T04:45:12.260Z,64
2022-09-04T04:45:52.787Z,68
2022-09-04T04:46:33.267Z,72
2022-09-04T04:47:13.706Z,76
2022-09-04T04:47:54.179Z,80
2022-09-04T04:48:34.743Z,84
2022-09-04T04:49:15.095Z,92
2022-09-04T04:55:20.215Z,148
2022-09-04T04:56:00.700Z,156
2022-09-04T04:56:41.179Z,168
2022-09-04T04:57:21.661Z,176
2022-09-04T04:58:02.202Z,184
2022-09-04T04:58:42.659Z,196
2022-09-04T04:59:23.144Z,204
2022-09-04T05:00:03.604Z,216
2022-09-04T05:00:44.068Z,228
2022-09-04T05:01:24.595Z,244
2022-09-04T05:02:05.084Z,256
2022-09-04T05:08:49.812Z,444
2022-09-04T05:09:31.162Z,472
2022-09-04T05:10:11.634Z,496
2022-09-04T05:10:52.086Z,524
2022-09-04T05:11:32.590Z,556
2022-09-04T05:12:13.050Z,592
2022-09-04T05:12:53.525Z,636
2022-09-04T05:16:09.576Z,884
2022-09-04T05:16:50.124Z,916
2022-09-04T05:17:28.145Z,972
2022-09-04T05:18:08.656Z,1044
2022-09-04T05:18:49.117Z,1056
2022-09-04T05:19:29.606Z,1076
2022-09-04T05:20:10.057Z,1072
2022-09-04T05:20:50.532Z,1072
2022-09-04T05:21:30.975Z,1076
2022-09-04T05:22:11.441Z,1084
2022-09-04T05:22:51.952Z,1104
2022-09-04T05:30:17.025Z,3348
2022-09-04T05:30:57.552Z,3504
2022-09-04T05:31:38.126Z,3672
2022-09-04T05:32:18.433Z,3768
2022-09-04T05:32:58.892Z,4000
2022-09-04T05:33:39.381Z,4040
2022-09-04T05:34:19.845Z,4072
2022-09-04T05:35:00.327Z,4244
2022-09-04T05:38:54.433Z,5844
2022-09-04T05:39:34.982Z,5920
2022-09-04T05:40:15.396Z,6084
2022-09-04T05:40:55.878Z,6184
2022-09-04T05:41:36.342Z,6672
2022-09-04T05:42:16.806Z,6952
2022-09-04T05:42:57.273Z,6836
2022-09-04T05:44:18.233Z,6152
2022-09-04T05:44:58.684Z,6048
2022-09-04T05:45:39.139Z,6304
2022-09-04T05:53:04.350Z,10140
2022-09-04T05:53:44.843Z,10204
2022-09-04T06:32:13.922Z,13768
2022-09-04T06:32:54.355Z,13156
2022-09-04T06:33:34.803Z,13312
2022-09-04T06:34:18.150Z,12912
2022-09-04T06:34:55.839Z,12952
2022-09-04T06:35:36.352Z,12924
2022-09-04T06:36:16.881Z,12644
2022-09-04T06:36:57.337Z,12964
2022-09-04T06:37:37.852Z,13476
2022-09-04T06:38:18.372Z,13540
2022-09-04T06:38:58.854Z,13772
2022-09-04T06:45:43.823Z,14400
2022-09-04T06:46:24.362Z,14496
2022-09-04T06:47:04.802Z,13992
2022-09-04T06:47:45.286Z,13764
2022-09-04T06:48:25.834Z,13564
2022-09-04T06:49:06.251Z,13584
2022-09-04T06:49:46.722Z,13596
2022-09-04T06:50:27.223Z,13848
2022-09-04T06:51:07.696Z,12796
2022-09-04T06:51:48.200Z,12128
2022-09-04T06:52:28.663Z,12028
2022-09-04T06:59:13.626Z,12376
2022-09-04T06:59:54.143Z,12236
2022-09-04T07:00:34.610Z,12156
2022-09-04T07:01:15.172Z,12468
2022-09-04T07:02:36.237Z,12684
2022-09-04T07:03:16.604Z,12296
2022-09-04T07:03:57.142Z,11968
2022-09-04T07:05:18.185Z,11644
2022-09-04T07:05:58.611Z,11220
2022-09-04T07:12:43.611Z,11012
2022-09-04T07:13:24.096Z,11436
2022-09-04T07:14:04.543Z,11548
2022-09-04T07:14:45.087Z,11520
2022-09-04T07:15:25.585Z,11440
2022-09-04T07:16:06.070Z,11448
2022-09-04T07:16:46.515Z,11064
2022-09-04T07:17:27.024Z,10520
2022-09-04T07:18:07.528Z,9684
2022-09-04T07:18:48.044Z,8816
2022-09-04T07:19:28.537Z,7992
2022-09-04T07:27:10.760Z,5624
2022-09-04T07:27:51.383Z,5448
2022-09-04T07:28:31.923Z,5292
2022-09-04T07:29:12.451Z,5160
2022-09-04T07:29:52.936Z,5000
2022-09-04T07:30:33.414Z,4812
2022-09-04T07:31:13.994Z,4684
2022-09-04T07:31:54.462Z,4576
2022-09-04T07:32:34.942Z,4420
2022-09-04T07:33:15.444Z,4360
2022-09-04T07:40:00.588Z,3632
2022-09-04T07:40:41.040Z,3568
2022-09-04T07:41:21.580Z,3484
2022-09-04T07:42:02.048Z,3448
2022-09-04T07:43:23.115Z,3332
2022-09-04T07:44:03.603Z,3264
2022-09-04T07:44:44.136Z,3220
2022-09-04T07:45:24.595Z,3172
2022-09-04T07:46:05.076Z,3140
2022-09-04T07:46:45.545Z,3084
2022-09-04T07:53:30.626Z,2796
2022-09-04T07:54:11.270Z,2780
2022-09-04T07:54:51.680Z,2760
2022-09-04T07:55:32.181Z,2736
2022-09-04T07:56:12.716Z,2724
2022-09-04T07:56:53.218Z,2724
2022-09-04T07:57:33.715Z,2728
2022-09-04T07:58:14.230Z,2728
2022-09-04T07:58:54.731Z,2708
2022-09-04T07:59:35.242Z,2700
2022-09-04T08:07:00.644Z,2544
2022-09-04T08:07:41.117Z,2536
2022-09-04T08:08:21.668Z,2536
2022-09-04T08:09:02.158Z,2520
2022-09-04T08:09:42.668Z,2516
2022-09-04T08:10:23.131Z,2492
2022-09-04T08:11:03.632Z,2484
2022-09-04T08:11:44.127Z,2480
2022-09-04T08:12:24.734Z,2484
2022-09-04T08:13:05.141Z,2488
2022-09-04T08:13:45.643Z,2492
2022-09-04T08:18:45.837Z,2448
2022-09-04T08:19:26.174Z,2444
2022-09-04T08:20:06.661Z,2440
2022-09-04T08:20:47.184Z,2456
2022-09-04T08:21:27.692Z,2452
2022-09-04T08:22:08.679Z,2436
2022-09-04T08:22:48.639Z,2432
2022-09-04T08:23:29.179Z,2420
2022-09-04T08:24:09.753Z,2404
2022-09-04T08:24:50.225Z,2396
2022-09-04T08:25:30.754Z,2372
2022-09-04T08:32:15.665Z,2288
2022-09-04T08:32:56.151Z,2288
2022-09-04T08:33:36.680Z,2292
2022-09-04T08:34:17.189Z,2292
2022-09-04T08:34:57.747Z,2292
2022-09-04T08:35:38.189Z,2292
2022-09-04T08:36:18.679Z,2292
2022-09-04T08:36:59.173Z,2296
2022-09-04T08:37:39.683Z,2300
2022-09-04T08:38:20.196Z,2312
2022-09-04T08:39:04.663Z,2312
2022-09-04T08:45:45.583Z,2168
2022-09-04T08:46:28.856Z,2148
2022-09-04T08:47:06.576Z,2132
2022-09-04T08:47:47.054Z,2116
2022-09-04T08:48:27.551Z,2100
2022-09-04T08:49:08.083Z,2080
2022-09-04T08:49:48.545Z,2064
2022-09-04T08:50:29.139Z,2060
2022-09-04T08:51:09.628Z,2048
2022-09-04T08:51:50.094Z,2032
2022-09-04T08:52:30.566Z,2024
2022-09-04T08:59:15.573Z,1920
2022-09-04T08:59:56.014Z,1908
2022-09-04T09:00:36.601Z,1900
2022-09-04T09:01:17.057Z,1888
2022-09-04T09:01:57.511Z,1876
2022-09-04T09:02:38.137Z,1864
2022-09-04T09:03:18.557Z,1856
2022-09-04T09:03:59.102Z,1848
2022-09-04T09:04:39.527Z,1844
2022-09-04T09:05:20.005Z,1840
2022-09-04T09:06:00.518Z,1832
2022-09-04T09:10:05.931Z,1804
2022-09-04T09:10:46.368Z,1800
2022-09-04T09:11:27.273Z,1796
2022-09-04T09:12:08.335Z,1788
2022-09-04T09:12:49.334Z,1780
2022-09-04T09:13:30.629Z,1772
2022-09-04T09:18:16.502Z,1728
2022-09-04T09:18:57.874Z,1724
2022-09-04T09:19:38.875Z,1720
2022-09-04T09:22:55.956Z,1696
2022-09-04T09:23:38.327Z,1692
2022-09-04T09:24:21.502Z,1688
2022-09-04T09:25:02.336Z,1684
2022-09-04T09:25:44.668Z,1676
2022-09-04T09:26:26.785Z,1676
2022-09-04T09:27:08.562Z,1668
2022-09-04T09:29:13.280Z,1668
2022-09-04T09:29:54.219Z,1660
2022-09-04T09:30:35.406Z,1644
2022-09-04T09:31:17.378Z,1648
2022-09-04T09:33:23.225Z,1648
2022-09-04T09:34:05.499Z,1644
2022-09-04T09:37:21.022Z,1644
2022-09-04T09:38:04.418Z,1640
2022-09-04T09:38:43.315Z,1632
2022-09-04T09:39:24.930Z,1628
2022-09-04T09:41:31.573Z,1640
2022-09-04T09:42:12.625Z,1636
2022-09-04T09:42:53.585Z,1636
2022-09-04T09:43:34.613Z,1636
2022-09-04T09:44:17.108Z,1636
2022-09-04T09:45:03.398Z,1624
2022-09-04T09:45:42.116Z,1608
2022-09-04T09:46:24.047Z,1592
2022-09-04T09:47:05.283Z,1584
2022-09-04T09:53:50.111Z,1544
2022-09-04T09:54:30.583Z,1544
2022-09-04T09:55:11.086Z,1552
2022-09-04T09:55:51.633Z,1556
2022-09-04T09:56:32.108Z,1556
2022-09-04T09:57:12.654Z,1556
2022-09-04T09:57:53.114Z,1552
2022-09-04T09:58:33.634Z,1548
2022-09-04T09:59:14.085Z,1556
2022-09-04T09:59:54.595Z,1544
2022-09-04T10:00:35.098Z,1536
2022-09-04T10:07:36.970Z,1468
2022-09-04T10:08:17.502Z,1464
2022-09-04T10:08:57.947Z,1472
2022-09-04T10:09:38.418Z,1472
2022-09-04T10:10:18.957Z,1480
2022-09-04T10:10:59.527Z,1488
2022-09-04T10:11:39.964Z,1476
2022-09-04T10:12:20.490Z,1416
2022-09-04T10:13:00.960Z,1464
2022-09-04T10:13:41.452Z,1456
2022-09-04T10:19:45.877Z,1608
2022-09-04T10:20:26.339Z,1592
2022-09-04T10:21:06.978Z,1572
2022-09-04T10:24:49.475Z,1564
2022-09-04T10:25:29.926Z,1572
2022-09-04T10:26:10.397Z,1580
2022-09-04T10:26:50.887Z,1588
2022-09-04T10:27:31.416Z,1612
2022-09-04T10:28:11.930Z,1616
2022-09-04T10:28:52.407Z,1652
2022-09-04T10:29:32.919Z,1676
2022-09-04T10:30:13.374Z,1704
2022-09-04T10:30:53.934Z,1728
2022-09-04T10:31:34.436Z,1688
2022-09-04T10:38:19.425Z,1772
2022-09-04T10:38:59.925Z,1752
2022-09-04T10:39:40.437Z,1760
2022-09-04T10:40:20.864Z,1800
2022-09-04T10:41:01.407Z,1828
2022-09-04T10:41:41.868Z,1876
2022-09-04T10:42:22.328Z,1836
2022-09-04T10:43:02.807Z,1792
2022-09-04T10:43:43.282Z,1580
2022-09-04T10:44:23.767Z,1492
2022-09-04T10:45:04.251Z,1468
2022-09-04T10:51:49.278Z,1260
2022-09-04T10:52:29.807Z,1276
2022-09-04T10:53:10.472Z,1308
2022-09-04T10:53:50.985Z,1324
2022-09-04T10:54:31.498Z,1344
2022-09-04T10:55:11.965Z,1340
2022-09-04T10:55:52.506Z,1328
2022-09-04T10:56:33.048Z,1320
2022-09-04T11:02:39.232Z,1276
2022-09-04T11:03:19.751Z,1268
2022-09-04T11:04:00.175Z,1244
2022-09-04T11:04:40.682Z,1244
2022-09-04T11:05:21.186Z,1444
2022-09-04T11:06:01.620Z,1412
2022-09-04T11:06:42.112Z,1724
2022-09-04T11:07:25.752Z,1744
2022-09-04T11:08:03.161Z,1776
2022-09-04T11:08:43.623Z,1796
2022-09-04T11:09:24.217Z,1540
2022-09-04T11:15:29.249Z,1352
2022-09-04T11:16:09.868Z,1440
2022-09-04T11:16:50.561Z,1600
2022-09-04T11:17:31.648Z,1400
2022-09-04T11:18:12.131Z,1400
2022-09-04T11:18:52.629Z,1400
2022-09-04T11:19:33.190Z,1404
2022-09-04T11:20:17.645Z,1372
2022-09-04T11:29:17.065Z,1616
2022-09-04T11:29:57.595Z,1632
2022-09-04T11:30:38.046Z,1644
2022-09-04T11:31:18.547Z,1668
2022-09-04T11:31:59.047Z,1692
2022-09-04T11:32:39.529Z,1712
2022-09-04T11:33:20.212Z,1736
2022-09-04T11:34:00.630Z,1764
2022-09-04T11:34:41.104Z,1800
2022-09-04T11:35:21.616Z,1832
2022-09-04T11:42:06.677Z,1900
2022-09-04T11:42:47.866Z,1928
2022-09-04T11:43:27.700Z,2032
2022-09-04T11:44:08.342Z,1940
2022-09-04T11:44:48.887Z,1940
2022-09-04T11:45:29.422Z,1956
2022-09-04T11:46:09.976Z,1960
2022-09-04T11:46:50.414Z,1960
2022-09-04T11:47:30.936Z,1960
2022-09-04T11:48:11.497Z,1964
2022-09-04T12:32:37.326Z,1636
2022-09-04T12:35:56.284Z,1720
2022-09-04T12:36:36.807Z,1912
2022-09-04T12:37:17.297Z,1860
2022-09-04T12:37:57.764Z,1892
2022-09-04T12:38:38.299Z,1628
2022-09-04T12:39:18.768Z,1604
2022-09-04T12:39:59.434Z,1588
2022-09-04T12:40:39.771Z,1540
2022-09-04T12:41:20.250Z,1512
2022-09-04T12:42:00.720Z,1516
2022-09-04T12:42:41.219Z,1484
2022-09-04T12:49:26.328Z,1588
2022-09-04T12:50:06.768Z,1600
2022-09-04T12:50:47.244Z,1576
2022-09-04T12:51:28.103Z,1588
2022-09-04T12:52:08.742Z,1696
2022-09-04T12:52:49.176Z,1720
2022-09-04T12:53:29.708Z,1768
2022-09-04T12:54:11.249Z,1808
2022-09-04T12:54:50.770Z,1864
2022-09-04T13:01:36.351Z,1788
2022-09-04T13:02:16.827Z,1752
2022-09-04T13:02:57.182Z,1740
2022-09-04T13:03:37.785Z,1728
2022-09-04T13:04:18.230Z,1712
2022-09-04T13:04:58.761Z,1684
2022-09-04T13:05:39.419Z,1728
2022-09-04T13:06:19.670Z,1888
2022-09-04T13:07:00.190Z,1744
2022-09-04T13:07:40.664Z,1788
2022-09-04T13:08:21.228Z,1744
2022-09-04T13:15:06.806Z,1692
2022-09-04T13:15:47.253Z,1696
2022-09-04T13:16:27.818Z,1700
2022-09-04T13:17:08.293Z,1676
2022-09-04T13:17:48.739Z,1680
2022-09-04T13:18:29.229Z,1680
2022-09-04T13:19:10.660Z,1700
2022-09-04T13:19:50.270Z,1756
2022-09-04T13:25:56.177Z,2040
2022-09-04T13:26:37.198Z,2116
2022-09-04T13:27:17.718Z,2160
2022-09-04T13:30:31.404Z,1836
2022-09-04T13:31:11.885Z,1820
2022-09-04T13:31:52.436Z,1980
2022-09-04T13:32:32.868Z,2136
2022-09-04T13:33:13.305Z,2124
2022-09-04T13:33:53.848Z,2084
2022-09-04T13:34:34.572Z,2056
2022-09-04T13:35:18.882Z,2024
2022-09-04T13:35:55.442Z,1996
2022-09-04T13:36:36.811Z,1980
2022-09-04T13:37:16.422Z,1984
2022-09-04T13:43:21.051Z,1820
2022-09-04T13:44:02.644Z,1836
2022-09-04T13:44:42.806Z,1832
2022-09-04T13:45:23.334Z,1824
2022-09-04T13:46:03.891Z,1784
2022-09-04T13:46:44.466Z,1784
2022-09-04T13:47:32.297Z,1820
2022-09-04T13:48:05.360Z,1816
2022-09-04T13:48:45.856Z,1784
2022-09-04T13:49:26.622Z,1752
2022-09-04T13:54:51.999Z,1824
2022-09-04T13:55:32.505Z,1840
2022-09-04T13:56:13.174Z,1864
2022-09-04T13:56:53.812Z,1908
2022-09-04T13:57:34.501Z,1936
2022-09-04T13:58:15.171Z,1932
2022-09-04T13:58:55.668Z,1912
2022-09-04T13:59:36.204Z,1876
2022-09-04T14:04:21.137Z,1872
2022-09-04T14:05:01.563Z,1964
2022-09-04T14:05:42.052Z,2008
2022-09-04T14:06:22.556Z,2052
2022-09-04T14:07:03.219Z,2060
2022-09-04T14:07:45.133Z,2076
2022-09-04T14:08:24.333Z,2088
2022-09-04T14:09:05.967Z,2060
2022-09-04T14:09:45.237Z,1996
2022-09-04T14:10:25.727Z,1932
2022-09-04T14:11:06.316Z,1880
2022-09-04T14:16:31.187Z,1576
2022-09-04T14:17:11.648Z,1548
2022-09-04T14:17:52.151Z,1536
2022-09-04T14:18:32.743Z,1488
2022-09-04T14:19:16.346Z,1504
2022-09-04T14:24:41.393Z,1648
2022-09-04T14:25:21.932Z,1664
2022-09-04T14:26:02.580Z,1644
2022-09-04T14:26:43.068Z,1624
2022-09-04T14:27:23.578Z,1624
2022-09-04T14:28:04.436Z,1632
2022-09-04T14:28:45.042Z,1640
2022-09-04T14:29:25.464Z,1660
2022-09-04T14:30:05.956Z,1676
2022-09-04T14:36:11.148Z,1684
2022-09-04T14:36:52.157Z,1664
2022-09-04T14:37:32.381Z,1652
2022-09-04T14:38:12.930Z,1652
2022-09-04T14:38:53.434Z,1668
2022-09-04T14:39:33.966Z,1700
2022-09-04T14:40:14.431Z,1756
2022-09-04T14:40:54.932Z,1764
2022-09-04T14:41:36.099Z,1724
2022-09-04T14:42:15.919Z,1688
2022-09-04T14:48:21.372Z,1552
2022-09-04T14:49:01.751Z,1560
2022-09-04T14:49:42.201Z,1584
2022-09-04T14:50:22.722Z,1608
2022-09-04T14:51:03.378Z,1644
2022-09-04T14:51:43.910Z,1664
2022-09-04T14:52:24.486Z,1688
2022-09-04T14:53:06.143Z,1700
2022-09-04T15:00:48.756Z,1496
2022-09-04T15:01:29.276Z,1468
2022-09-04T15:02:09.834Z,1424
2022-09-04T15:02:50.364Z,1372
2022-09-04T15:03:31.646Z,1320
2022-09-04T15:04:12.165Z,1284
2022-09-04T15:04:52.725Z,1264
2022-09-04T15:05:33.145Z,1244
2022-09-04T15:13:15.688Z,1004
2022-09-04T15:13:56.889Z,1008
2022-09-04T15:14:37.398Z,1040
2022-09-04T15:15:17.804Z,1172
2022-09-04T15:15:58.440Z,1108
2022-09-04T15:16:40.376Z,1200
2022-09-04T15:20:45.833Z,1296
2022-09-04T15:21:26.405Z,1284
2022-09-04T15:22:07.365Z,1264
2022-09-04T15:22:48.117Z,1236
2022-09-04T15:26:02.883Z,1152
2022-09-04T15:26:46.358Z,1152
2022-09-04T15:27:23.878Z,1144
2022-09-04T15:28:04.971Z,1136
2022-09-04T15:28:45.321Z,1136
2022-09-04T15:29:26.207Z,1136
2022-09-04T15:30:06.996Z,1128
2022-09-04T15:30:47.456Z,1120
2022-09-04T15:31:27.925Z,1152
2022-09-04T15:36:48.654Z,1180
2022-09-04T15:37:28.961Z,1160
2022-09-04T15:38:09.509Z,1132
2022-09-04T15:38:50.202Z,1100
2022-09-04T15:39:32.790Z,1076
2022-09-04T15:42:08.477Z,992
2022-09-04T15:42:48.859Z,992
2022-09-04T15:43:29.443Z,980
2022-09-04T15:46:58.735Z,924
2022-09-04T15:47:39.484Z,920
2022-09-04T15:48:20.046Z,912
2022-09-04T15:49:00.755Z,900
2022-09-04T15:49:41.232Z,888
2022-09-04T15:50:21.803Z,884
2022-09-04T15:51:03.679Z,884
2022-09-04T15:51:42.775Z,892
2022-09-04T15:52:23.292Z,908
2022-09-04T15:58:28.510Z,868
2022-09-04T15:59:09.850Z,848
2022-09-04T16:02:09.629Z,816
2022-09-04T16:02:50.637Z,816
2022-09-04T16:03:31.639Z,820
2022-09-04T16:04:12.644Z,820
2022-09-04T16:04:53.583Z,820
2022-09-04T16:05:34.587Z,824
2022-09-04T16:08:59.950Z,824
2022-09-04T16:09:40.799Z,820
2022-09-04T16:10:21.978Z,824
2022-09-04T16:11:02.959Z,832
2022-09-04T16:11:43.933Z,824
2022-09-04T16:12:24.941Z,820
2022-09-04T16:15:49.887Z,832
2022-09-04T16:16:31.049Z,820
2022-09-04T16:17:12.233Z,824
2022-09-04T16:17:53.057Z,824
2022-09-04T16:18:33.980Z,828
2022-09-04T16:19:14.963Z,828
2022-09-04T16:21:59.454Z,816
2022-09-04T16:22:40.541Z,816
2022-09-04T16:23:21.374Z,816
2022-09-04T16:24:02.392Z,820
2022-09-04T16:24:44.913Z,820
2022-09-04T16:28:09.838Z,820
2022-09-04T16:28:50.827Z,816
2022-09-04T16:29:31.788Z,820
2022-09-04T16:30:12.932Z,824
2022-09-04T16:30:54.117Z,824
2022-09-04T16:31:35.365Z,816
2022-09-04T16:34:21.252Z,828
2022-09-04T16:35:02.244Z,828
2022-09-04T16:35:43.148Z,824
2022-09-04T16:36:24.322Z,820
2022-09-04T16:40:30.554Z,800
2022-09-04T16:41:11.552Z,800
2022-09-04T16:41:52.566Z,800
2022-09-04T16:42:37.535Z,796
2022-09-04T16:44:00.040Z,788
2022-09-04T16:44:41.066Z,784
2022-09-04T16:45:22.039Z,784
2022-09-04T16:46:03.100Z,784
2022-09-04T16:46:44.014Z,780
2022-09-04T16:47:25.010Z,772
2022-09-04T16:50:09.959Z,748
2022-09-04T16:50:50.651Z,736
2022-09-04T16:51:39.584Z,732
2022-09-04T16:52:13.219Z,728
2022-09-04T16:53:13.158Z,724
2022-09-04T16:56:19.554Z,680
2022-09-04T16:57:12.700Z,672
2022-09-04T16:57:41.549Z,668
2022-09-04T16:58:29.996Z,660
2022-09-04T16:59:03.655Z,648
2022-09-04T16:59:46.082Z,644
2022-09-04T17:03:09.988Z,616
2022-09-04T17:03:50.916Z,608
2022-09-04T17:04:31.855Z,608
2022-09-04T17:05:12.813Z,600
2022-09-04T17:05:53.774Z,592
2022-09-04T17:06:34.758Z,584
2022-09-04T17:09:25.609Z,568
2022-09-04T17:12:10.109Z,540
2022-09-04T17:12:51.178Z,536
2022-09-04T17:13:36.278Z,532
2022-09-04T17:14:13.993Z,528
2022-09-04T17:17:30.405Z,488
2022-09-04T17:18:08.497Z,492
2022-09-04T17:18:49.036Z,488
2022-09-04T17:19:29.448Z,480
2022-09-04T17:20:10.082Z,476
2022-09-04T17:21:17.531Z,472
2022-09-04T17:21:58.396Z,468
2022-09-04T17:27:16.530Z,464
2022-09-04T17:29:28.025Z,400
2022-09-04T17:29:42.994Z,392
2022-09-04T17:30:20.712Z,384
2022-09-04T17:30:59.747Z,376
2022-09-04T17:31:40.865Z,372
2022-09-04T17:32:46.798Z,360
2022-09-04T17:33:57.110Z,356
2022-09-04T17:36:14.254Z,344
2022-09-04T17:36:16.367Z,348
2022-09-04T17:40:44.881Z,276
2022-09-04T17:40:45.022Z,296
2022-09-04T17:40:45.034Z,280
2022-09-04T17:40:45.905Z,288
2022-09-04T17:41:35.400Z,264
2022-09-04T17:42:09.764Z,256
2022-09-04T17:42:30.929Z,248
2022-09-04T17:43:15.911Z,240
2022-09-04T17:43:51.935Z,232
2022-09-04T17:44:32.511Z,228
2022-09-04T17:45:12.979Z,220
2022-09-04T17:49:57.725Z,172
2022-09-04T17:51:18.007Z,164
2022-09-04T17:51:58.629Z,156
2022-09-04T17:52:39.157Z,156
2022-09-04T17:53:28.768Z,148
2022-09-04T18:37:13.498Z,0
2022-09-04T18:37:13.935Z,0
2022-09-04T18:37:14.356Z,0
2022-09-04T18:37:14.730Z,0
2022-09-04T18:37:41.214Z,0
2022-09-04T18:38:53.698Z,0
2022-09-04T18:39:31.822Z,0
2022-09-04T18:40:12.737Z,0
2022-09-04T18:41:53.025Z,0
2022-09-04T18:43:05.387Z,0
2022-09-04T18:44:27.178Z,0
2022-09-04T18:47:43.668Z,0
2022-09-04T18:50:26.411Z,0
2022-09-04T18:50:26.482Z,0
2022-09-04T18:50:41.724Z,0
2022-09-04T18:50:41.882Z,0
2022-09-04T18:51:50.452Z,0
2022-09-04T18:52:31.560Z,0
2022-09-04T18:53:12.457Z,0
2022-09-04T18:53:53.511Z,0
2022-09-04T18:54:34.471Z,0
2022-09-04T18:55:15.470Z,0
2022-09-04T18:58:40.762Z,0
2022-09-04T18:59:21.766Z,0
2022-09-04T19:00:07.883Z,0
2022-09-04T19:00:43.703Z,0
2022-09-04T19:01:27.010Z,0
2022-09-04T19:05:15.711Z,0
2022-09-04T19:05:56.062Z,0
2022-09-04T19:06:36.476Z,0
2022-09-04T19:07:16.968Z,0
2022-09-04T19:07:57.564Z,0
2022-09-04T19:08:38.073Z,0
2022-09-04T19:09:18.571Z,0
2022-09-04T19:09:59.065Z,0
2022-09-04T19:10:39.559Z,0
2022-09-04T19:17:24.517Z,0
2022-09-04T19:18:05.011Z,0
2022-09-04T19:18:45.490Z,0
2022-09-04T19:19:27.248Z,0
2022-09-04T19:20:06.648Z,0
2022-09-04T19:20:46.985Z,0
2022-09-04T19:21:27.445Z,0
2022-09-04T19:22:08.985Z,0
2022-09-04T19:22:49.378Z,0
2022-09-04T19:23:29.836Z,0
2022-09-04T19:30:17.984Z,0
2022-09-04T19:30:55.376Z,0
2022-09-04T19:31:35.868Z,0
2022-09-04T19:32:16.283Z,0
2022-09-04T19:32:56.792Z,0
2022-09-04T19:33:37.281Z,0
2022-09-04T19:34:17.771Z,0